Terminal Aerodrome Forecast
Issued by NWS

Home | Current Version | Previous Version | Text Only | Print | Product List | Glossary On
Versions: 1 2 3 4 5 6 7 8 9 10 11 12
000
FTUS43 KGRR 040500
TAFBTL
TAF
KBTL 040521Z 0406/0506 19007KT P6SM VCSH OVC110
     FM040700 19010KT 6SM -SHRA VCTS BKN040CB OVC080
     FM040800 19009KT P6SM VCTS OVC035CB
     FM041500 24009KT 6SM BR VCSH OVC025
     FM041800 28009KT P6SM VCTS OVC015CB
     FM050100 33006KT P6SM VCSH OVC020=

USA.gov is the U.S. government's official web portal to all federal, state and local government web resources and services.